Terminal Aerodrome Forecast
Issued by NWS

Home | Current Version | Previous Version | Text Only | Print | Product List | Glossary On
Versions: 1 2 3 4 5 6 7 8 9 10 11 12 13
000
FTUS46 KMTR 041721
TAFSTS
TAF
KSTS 041721Z 0418/0518 00000KT P6SM OVC020
      TEMPO 0418/0419 SCT020
     FM041900 VRB03KT P6SM SCT025 BKN200
     FM042100 20009KT P6SM SCT035 BKN200
     FM050300 17005KT P6SM SCT020 SCT200
     FM050600 VRB03KT P6SM BKN020
     FM050800 00000KT P6SM OVC008=

USA.gov is the U.S. government's official web portal to all federal, state and local government web resources and services.